Sharp Park, California
Current Conditions -  °F | °C
As of 9:56 AM on Sunday 23 Nov 2014 (Local Time) from KSFO Reporting Station
Scattered Clouds Scattered Clouds  
Wind Chill: 60°   Ceiling: Unl
Heat Index: 60°   Visibility: 10mi
Dew Point: 45°   Wind: 6mph
Humidity: 57%   Direction: 10°N
Pressure: 30.34"   Gusts: NA
Location:  37.6009°N, 122.483°W
Report Text: KSFO 231756Z 01005KT 10SM FEW150 SCT180 16/07 A3034 RMK AO2 SLP275 T01560072 10156 20100 53017
Loading
Personal Weather Stations






























Interactive Weather Map New forecast layout! Learn more

10-Day Weather Forecast

Advertisements
Track Severe Weather on mobile